WMT133 LRTR-EDLW
Flight info
| Callsign | WMT133 |
|---|---|
| Flight time | 1h 51m |
| Altitude | 38000 |
| Route | MOPUG DCT GILEP DCT ABLOM DCT PISAM DCT RAPET T843 DEMAB T842 ADEMI ADEMI2A |
| Aircraft | A320/M-SDE1E2E3FGIJ1J4RWXY/LB1 |
Departure
| Time | 2026-04-19 07:45 |
|---|---|
| Airport | Timișoara Traian Vuia International Airport (LRTR) |
Arrival
| Time | 2026-04-19 09:36 |
|---|---|
| Airport | Dortmund Airport (EDLW) |
| Time | Latitude | Longitude | Altitude | Speed | Heading |
|---|---|---|---|---|---|
| 2026-04-19 07:19 | 45.81058 | 21.32135 | 342 ft | 0 kts | 199° |
| 2026-04-19 07:39 | 45.81066 | 21.32139 | 342 ft | 4 kts | 201° |
| 2026-04-19 07:39 | 45.81089 | 21.32156 | 342 ft | 4 kts | 220° |
| 2026-04-19 07:39 | 45.81104 | 21.32183 | 349 ft | 4 kts | 268° |
| 2026-04-19 07:39 | 45.81103 | 21.32197 | 348 ft | 0 kts | 290° |
| 2026-04-19 07:42 | 45.81107 | 21.32182 | 350 ft | 3 kts | 290° |
| 2026-04-19 07:42 | 45.81117 | 21.32141 | 350 ft | 6 kts | 290° |
| 2026-04-19 07:42 | 45.81134 | 21.32075 | 345 ft | 8 kts | 290° |
| 2026-04-19 07:42 | 45.81164 | 21.31989 | 345 ft | 11 kts | 291° |
| 2026-04-19 07:43 | 45.81192 | 21.31871 | 345 ft | 14 kts | 289° |
| 2026-04-19 07:43 | 45.81228 | 21.31730 | 352 ft | 16 kts | 289° |
| 2026-04-19 07:43 | 45.81271 | 21.31583 | 346 ft | 14 kts | 315° |
| 2026-04-19 07:43 | 45.81364 | 21.31601 | 346 ft | 16 kts | 25° |
| 2026-04-19 07:44 | 45.81460 | 21.31654 | 338 ft | 5 kts | 20° |
| 2026-04-19 07:44 | 45.81503 | 21.31696 | 351 ft | 10 kts | 64° |
| 2026-04-19 07:44 | 45.81480 | 21.31808 | 338 ft | 19 kts | 110° |
| 2026-04-19 07:44 | 45.81346 | 21.32335 | 345 ft | 92 kts | 109° |
| 2026-04-19 07:45 | 45.81064 | 21.33461 | 350 ft | 145 kts | 109° |
| 2026-04-19 07:45 | 45.80682 | 21.34977 | 629 ft | 168 kts | 110° |
| 2026-04-19 07:45 | 45.80274 | 21.36544 | 1291 ft | 170 kts | 109° |
| 2026-04-19 07:45 | 45.79848 | 21.38133 | 1947 ft | 171 kts | 109° |
| 2026-04-19 07:46 | 45.79409 | 21.39731 | 2610 ft | 173 kts | 109° |
| 2026-04-19 07:46 | 45.78977 | 21.41338 | 3281 ft | 171 kts | 107° |
| 2026-04-19 07:46 | 45.78566 | 21.42889 | 4024 ft | 162 kts | 108° |
| 2026-04-19 07:46 | 45.78242 | 21.44391 | 4675 ft | 156 kts | 88° |
| 2026-04-19 07:47 | 45.78522 | 21.45845 | 5206 ft | 153 kts | 48° |
| 2026-04-19 07:47 | 45.79398 | 21.46624 | 5727 ft | 153 kts | 10° |
| 2026-04-19 07:47 | 45.80470 | 21.46798 | 6248 ft | 157 kts | 5° |
| 2026-04-19 07:47 | 45.81576 | 21.46973 | 6760 ft | 164 kts | 9° |
| 2026-04-19 07:48 | 45.82708 | 21.47308 | 7308 ft | 167 kts | 14° |
| 2026-04-19 07:48 | 45.83845 | 21.47810 | 7761 ft | 180 kts | 19° |
| 2026-04-19 07:48 | 45.85097 | 21.48457 | 8019 ft | 203 kts | 18° |
| 2026-04-19 07:48 | 45.86505 | 21.49173 | 8390 ft | 223 kts | 18° |
| 2026-04-19 07:49 | 45.87987 | 21.49930 | 9151 ft | 228 kts | 18° |
| 2026-04-19 07:49 | 45.89497 | 21.50700 | 10005 ft | 232 kts | 18° |
| 2026-04-19 07:49 | 45.91031 | 21.51486 | 10781 ft | 236 kts | 18° |
| 2026-04-19 07:49 | 45.92589 | 21.52286 | 11549 ft | 240 kts | 18° |
| 2026-04-19 07:50 | 45.94175 | 21.53088 | 12334 ft | 243 kts | 13° |
| 2026-04-19 07:50 | 45.95848 | 21.53184 | 13092 ft | 244 kts | 344° |
| 2026-04-19 07:50 | 45.97350 | 21.52035 | 13705 ft | 255 kts | 315° |
| 2026-04-19 07:50 | 45.98293 | 21.49777 | 13976 ft | 278 kts | 291° |
| 2026-04-19 07:51 | 45.98972 | 21.47044 | 14180 ft | 302 kts | 290° |
| 2026-04-19 07:51 | 45.99695 | 21.44086 | 14349 ft | 325 kts | 290° |
| 2026-04-19 07:51 | 46.00460 | 21.40965 | 14819 ft | 335 kts | 290° |
| 2026-04-19 07:51 | 46.01243 | 21.37786 | 15464 ft | 339 kts | 290° |
| 2026-04-19 07:52 | 46.02039 | 21.34578 | 16122 ft | 342 kts | 290° |
| 2026-04-19 07:52 | 46.02847 | 21.31343 | 16802 ft | 345 kts | 291° |
| 2026-04-19 07:52 | 46.03663 | 21.28077 | 17473 ft | 348 kts | 291° |
| 2026-04-19 07:52 | 46.04487 | 21.24783 | 18159 ft | 352 kts | 291° |
| 2026-04-19 07:53 | 46.05319 | 21.21456 | 18777 ft | 355 kts | 291° |
| 2026-04-19 07:53 | 46.06156 | 21.18098 | 19353 ft | 358 kts | 291° |
| 2026-04-19 07:53 | 46.06996 | 21.14709 | 19959 ft | 361 kts | 290° |
| 2026-04-19 07:53 | 46.07841 | 21.11292 | 20562 ft | 364 kts | 290° |
| 2026-04-19 07:54 | 46.08695 | 21.07840 | 21118 ft | 367 kts | 290° |
| 2026-04-19 07:54 | 46.09554 | 21.04367 | 21667 ft | 370 kts | 290° |
| 2026-04-19 07:54 | 46.10420 | 21.00866 | 22201 ft | 373 kts | 290° |
| 2026-04-19 07:54 | 46.11292 | 20.97328 | 22741 ft | 376 kts | 290° |
| 2026-04-19 07:55 | 46.12169 | 20.93768 | 23282 ft | 379 kts | 290° |
| 2026-04-19 07:55 | 46.13053 | 20.90177 | 23804 ft | 382 kts | 290° |
| 2026-04-19 07:55 | 46.13765 | 20.86472 | 24241 ft | 385 kts | 284° |
| 2026-04-19 07:55 | 46.14389 | 20.82700 | 24700 ft | 388 kts | 284° |
| 2026-04-19 07:56 | 46.15015 | 20.78910 | 25150 ft | 390 kts | 284° |
| 2026-04-19 07:56 | 46.15653 | 20.75098 | 25590 ft | 392 kts | 287° |
| 2026-04-19 07:56 | 46.16589 | 20.71406 | 26033 ft | 393 kts | 297° |
| 2026-04-19 07:56 | 46.17970 | 20.68006 | 26475 ft | 394 kts | 306° |
| 2026-04-19 07:57 | 46.19681 | 20.64907 | 26911 ft | 396 kts | 310° |
| 2026-04-19 07:57 | 46.21427 | 20.61819 | 27343 ft | 398 kts | 309° |
| 2026-04-19 07:57 | 46.23178 | 20.58704 | 27770 ft | 401 kts | 309° |
| 2026-04-19 07:57 | 46.24935 | 20.55564 | 28196 ft | 403 kts | 309° |
| 2026-04-19 07:58 | 46.26698 | 20.52402 | 28617 ft | 405 kts | 309° |
| 2026-04-19 07:58 | 46.28472 | 20.49217 | 29034 ft | 408 kts | 309° |
| 2026-04-19 07:58 | 46.30256 | 20.46017 | 29454 ft | 410 kts | 309° |
| 2026-04-19 07:58 | 46.32052 | 20.42798 | 29876 ft | 413 kts | 309° |
| 2026-04-19 07:59 | 46.33862 | 20.39552 | 30267 ft | 415 kts | 309° |
| 2026-04-19 07:59 | 46.35677 | 20.36294 | 30627 ft | 417 kts | 309° |
| 2026-04-19 07:59 | 46.37502 | 20.33013 | 30979 ft | 419 kts | 309° |
| 2026-04-19 07:59 | 46.39336 | 20.29711 | 31330 ft | 422 kts | 309° |
| 2026-04-19 08:00 | 46.41178 | 20.26389 | 31699 ft | 424 kts | 309° |
| 2026-04-19 08:00 | 46.43023 | 20.23058 | 32129 ft | 424 kts | 309° |
| 2026-04-19 08:00 | 46.44862 | 20.19731 | 32646 ft | 422 kts | 308° |
| 2026-04-19 08:00 | 46.46694 | 20.16416 | 33159 ft | 421 kts | 308° |
| 2026-04-19 08:01 | 46.48519 | 20.13108 | 33664 ft | 419 kts | 308° |
| 2026-04-19 08:01 | 46.50340 | 20.09807 | 34148 ft | 418 kts | 308° |
| 2026-04-19 08:01 | 46.52154 | 20.06513 | 34581 ft | 417 kts | 308° |
| 2026-04-19 08:01 | 46.53962 | 20.03221 | 34994 ft | 416 kts | 308° |
| 2026-04-19 08:02 | 46.55765 | 19.99935 | 35392 ft | 416 kts | 308° |
| 2026-04-19 08:02 | 46.57566 | 19.96654 | 35778 ft | 415 kts | 308° |
| 2026-04-19 08:02 | 46.59361 | 19.93382 | 36168 ft | 414 kts | 308° |
| 2026-04-19 08:02 | 46.61156 | 19.90106 | 36548 ft | 413 kts | 308° |
| 2026-04-19 08:03 | 46.62941 | 19.86840 | 36919 ft | 413 kts | 308° |
| 2026-04-19 08:03 | 46.64726 | 19.83573 | 37282 ft | 412 kts | 308° |
| 2026-04-19 08:03 | 46.66504 | 19.80309 | 37613 ft | 412 kts | 308° |
| 2026-04-19 08:03 | 46.68281 | 19.77042 | 37923 ft | 412 kts | 308° |
| 2026-04-19 08:04 | 46.70062 | 19.73765 | 38082 ft | 413 kts | 308° |
| 2026-04-19 08:04 | 46.73623 | 19.67221 | 38087 ft | 411 kts | 308° |
| 2026-04-19 08:05 | 46.77169 | 19.60684 | 38093 ft | 411 kts | 307° |
| 2026-04-19 08:05 | 46.80682 | 19.54187 | 38096 ft | 410 kts | 307° |
| 2026-04-19 08:06 | 46.84205 | 19.47631 | 38092 ft | 410 kts | 307° |
| 2026-04-19 08:06 | 46.87724 | 19.41082 | 38095 ft | 410 kts | 307° |
| 2026-04-19 08:07 | 46.91250 | 19.34527 | 38096 ft | 410 kts | 307° |
| 2026-04-19 08:07 | 46.94764 | 19.27964 | 38097 ft | 410 kts | 307° |
| 2026-04-19 08:08 | 46.98279 | 19.21388 | 38094 ft | 410 kts | 307° |
| 2026-04-19 08:08 | 47.01787 | 19.14806 | 38095 ft | 410 kts | 307° |
| 2026-04-19 08:09 | 47.05284 | 19.08221 | 38105 ft | 409 kts | 307° |
| 2026-04-19 08:09 | 47.08777 | 19.01627 | 38104 ft | 409 kts | 307° |
| 2026-04-19 08:10 | 47.12262 | 18.95029 | 38096 ft | 409 kts | 307° |
| 2026-04-19 08:10 | 47.15746 | 18.88423 | 38092 ft | 409 kts | 306° |
| 2026-04-19 08:11 | 47.19227 | 18.81808 | 38081 ft | 409 kts | 306° |
| 2026-04-19 08:11 | 47.22712 | 18.75177 | 38080 ft | 410 kts | 306° |
| 2026-04-19 08:12 | 47.26200 | 18.68540 | 38081 ft | 410 kts | 306° |
| 2026-04-19 08:12 | 47.29685 | 18.61892 | 38073 ft | 410 kts | 306° |
| 2026-04-19 08:13 | 47.33155 | 18.55223 | 38075 ft | 410 kts | 306° |
| 2026-04-19 08:13 | 47.36623 | 18.48534 | 38067 ft | 411 kts | 306° |
| 2026-04-19 08:14 | 47.40103 | 18.41827 | 38067 ft | 412 kts | 306° |
| 2026-04-19 08:14 | 47.45327 | 18.31731 | 38071 ft | 413 kts | 306° |
| 2026-04-19 08:15 | 47.48800 | 18.24986 | 38079 ft | 413 kts | 306° |
| 2026-04-19 08:15 | 47.52237 | 18.18262 | 38070 ft | 412 kts | 305° |
| 2026-04-19 08:16 | 47.55679 | 18.11474 | 38072 ft | 412 kts | 305° |
| 2026-04-19 08:16 | 47.59117 | 18.04669 | 38075 ft | 413 kts | 305° |
| 2026-04-19 08:17 | 47.62556 | 17.97859 | 38078 ft | 413 kts | 305° |
| 2026-04-19 08:17 | 47.65434 | 17.92143 | 38085 ft | 413 kts | 305° |
| 2026-04-19 08:18 | 47.68872 | 17.85308 | 38093 ft | 413 kts | 304° |
| 2026-04-19 08:18 | 47.72307 | 17.78459 | 38101 ft | 414 kts | 304° |
| 2026-04-19 08:19 | 47.75741 | 17.71594 | 38101 ft | 414 kts | 304° |
| 2026-04-19 08:19 | 47.79172 | 17.64712 | 38095 ft | 414 kts | 304° |
| 2026-04-19 08:20 | 47.82576 | 17.57875 | 38089 ft | 414 kts | 304° |
| 2026-04-19 08:20 | 47.86002 | 17.50988 | 38088 ft | 414 kts | 304° |
| 2026-04-19 08:21 | 47.89420 | 17.44074 | 38093 ft | 414 kts | 304° |
| 2026-04-19 08:21 | 47.92859 | 17.37105 | 38091 ft | 415 kts | 304° |
| 2026-04-19 08:22 | 47.96273 | 17.30169 | 38092 ft | 415 kts | 304° |
| 2026-04-19 08:22 | 47.99659 | 17.23274 | 38093 ft | 415 kts | 304° |
| 2026-04-19 08:23 | 48.03071 | 17.16328 | 38109 ft | 414 kts | 304° |
| 2026-04-19 08:23 | 48.06471 | 17.09374 | 38106 ft | 414 kts | 303° |
| 2026-04-19 08:24 | 48.09892 | 17.02442 | 38103 ft | 414 kts | 304° |
| 2026-04-19 08:24 | 48.13357 | 16.95553 | 38099 ft | 414 kts | 304° |
| 2026-04-19 08:25 | 48.16816 | 16.88650 | 38094 ft | 414 kts | 304° |
| 2026-04-19 08:25 | 48.20272 | 16.81672 | 38078 ft | 414 kts | 304° |
| 2026-04-19 08:26 | 48.23703 | 16.74732 | 38074 ft | 414 kts | 304° |
| 2026-04-19 08:26 | 48.27112 | 16.67834 | 38078 ft | 414 kts | 304° |
| 2026-04-19 08:27 | 48.30540 | 16.60881 | 38079 ft | 414 kts | 304° |
| 2026-04-19 08:27 | 48.33964 | 16.53913 | 38092 ft | 414 kts | 303° |
| 2026-04-19 08:28 | 48.37402 | 16.46896 | 38085 ft | 414 kts | 303° |
| 2026-04-19 08:28 | 48.40792 | 16.39966 | 38079 ft | 414 kts | 303° |
| 2026-04-19 08:29 | 48.44199 | 16.32980 | 38076 ft | 414 kts | 303° |
| 2026-04-19 08:29 | 48.47618 | 16.25945 | 38073 ft | 414 kts | 303° |
| 2026-04-19 08:30 | 48.51008 | 16.18939 | 38081 ft | 413 kts | 303° |
| 2026-04-19 08:30 | 48.54398 | 16.11925 | 38072 ft | 414 kts | 303° |
| 2026-04-19 08:31 | 48.57793 | 16.04912 | 38061 ft | 414 kts | 303° |
| 2026-04-19 08:31 | 48.61176 | 15.97880 | 38058 ft | 414 kts | 303° |
| 2026-04-19 08:32 | 48.64553 | 15.90836 | 38075 ft | 414 kts | 303° |
| 2026-04-19 08:32 | 48.67924 | 15.83790 | 38075 ft | 413 kts | 303° |
| 2026-04-19 08:33 | 48.71294 | 15.76739 | 38071 ft | 413 kts | 303° |
| 2026-04-19 08:33 | 48.74659 | 15.69677 | 38062 ft | 413 kts | 303° |
| 2026-04-19 08:34 | 48.78017 | 15.62609 | 38057 ft | 413 kts | 303° |
| 2026-04-19 08:34 | 48.81373 | 15.55525 | 38060 ft | 414 kts | 303° |
| 2026-04-19 08:35 | 48.84724 | 15.48428 | 38065 ft | 414 kts | 303° |
| 2026-04-19 08:35 | 48.88068 | 15.41320 | 38061 ft | 414 kts | 303° |
| 2026-04-19 08:36 | 48.91391 | 15.34172 | 38059 ft | 414 kts | 302° |
| 2026-04-19 08:36 | 48.94628 | 15.26941 | 38054 ft | 414 kts | 301° |
| 2026-04-19 08:37 | 48.97845 | 15.19686 | 38071 ft | 414 kts | 301° |
| 2026-04-19 08:37 | 49.01080 | 15.12439 | 38068 ft | 414 kts | 301° |
| 2026-04-19 08:38 | 49.04313 | 15.05188 | 38066 ft | 414 kts | 301° |
| 2026-04-19 08:38 | 49.07519 | 14.97966 | 38061 ft | 414 kts | 301° |
| 2026-04-19 08:39 | 49.10768 | 14.90633 | 38059 ft | 414 kts | 301° |
| 2026-04-19 08:39 | 49.13987 | 14.83342 | 38057 ft | 414 kts | 301° |
| 2026-04-19 08:40 | 49.17208 | 14.76040 | 38052 ft | 414 kts | 301° |
| 2026-04-19 08:40 | 49.20422 | 14.68723 | 38058 ft | 415 kts | 301° |
| 2026-04-19 08:41 | 49.23618 | 14.61440 | 38048 ft | 415 kts | 301° |
| 2026-04-19 08:41 | 49.26829 | 14.54096 | 38047 ft | 415 kts | 301° |
| 2026-04-19 08:42 | 49.30037 | 14.46723 | 38057 ft | 416 kts | 301° |
| 2026-04-19 08:42 | 49.33241 | 14.39347 | 38053 ft | 416 kts | 301° |
| 2026-04-19 08:43 | 49.36443 | 14.31957 | 38051 ft | 416 kts | 301° |
| 2026-04-19 08:43 | 49.39648 | 14.24552 | 38049 ft | 417 kts | 301° |
| 2026-04-19 08:44 | 49.42846 | 14.17133 | 38053 ft | 417 kts | 301° |
| 2026-04-19 08:44 | 49.46036 | 14.09702 | 38049 ft | 417 kts | 301° |
| 2026-04-19 08:45 | 49.49228 | 14.02260 | 38042 ft | 417 kts | 301° |
| 2026-04-19 08:45 | 49.52410 | 13.94802 | 38048 ft | 417 kts | 301° |
| 2026-04-19 08:46 | 49.55589 | 13.87344 | 38047 ft | 417 kts | 301° |
| 2026-04-19 08:46 | 49.58764 | 13.79874 | 38042 ft | 417 kts | 301° |
| 2026-04-19 08:47 | 49.61935 | 13.72392 | 38065 ft | 417 kts | 301° |
| 2026-04-19 08:47 | 49.65107 | 13.64895 | 38063 ft | 417 kts | 301° |
| 2026-04-19 08:48 | 49.68272 | 13.57386 | 38065 ft | 417 kts | 300° |
| 2026-04-19 08:48 | 49.71435 | 13.49877 | 38061 ft | 417 kts | 300° |
| 2026-04-19 08:49 | 49.74590 | 13.42348 | 38072 ft | 417 kts | 300° |
| 2026-04-19 08:49 | 49.77737 | 13.34809 | 38075 ft | 417 kts | 300° |
| 2026-04-19 08:50 | 49.80879 | 13.27254 | 38060 ft | 417 kts | 300° |
| 2026-04-19 08:50 | 49.84015 | 13.19697 | 38054 ft | 417 kts | 300° |
| 2026-04-19 08:51 | 49.87155 | 13.12131 | 38029 ft | 417 kts | 300° |
| 2026-04-19 08:51 | 49.90289 | 13.04555 | 38037 ft | 417 kts | 300° |
| 2026-04-19 08:52 | 49.93415 | 12.96965 | 38042 ft | 418 kts | 300° |
| 2026-04-19 08:52 | 49.96539 | 12.89359 | 38038 ft | 418 kts | 300° |
| 2026-04-19 08:53 | 49.99660 | 12.81745 | 38045 ft | 418 kts | 300° |
| 2026-04-19 08:53 | 50.02776 | 12.74103 | 38037 ft | 419 kts | 300° |
| 2026-04-19 08:54 | 50.05887 | 12.66443 | 38034 ft | 419 kts | 300° |
| 2026-04-19 08:54 | 50.09007 | 12.58769 | 38032 ft | 420 kts | 300° |
| 2026-04-19 08:55 | 50.12123 | 12.51077 | 38032 ft | 420 kts | 300° |
| 2026-04-19 08:55 | 50.15223 | 12.43376 | 38032 ft | 420 kts | 300° |
| 2026-04-19 08:56 | 50.18281 | 12.35616 | 38022 ft | 419 kts | 295° |
| 2026-04-19 08:56 | 50.20133 | 12.27074 | 38015 ft | 416 kts | 282° |
| 2026-04-19 08:57 | 50.21510 | 12.18301 | 38023 ft | 416 kts | 282° |
| 2026-04-19 08:57 | 50.22888 | 12.09517 | 38030 ft | 417 kts | 282° |
| 2026-04-19 08:58 | 50.24265 | 12.00723 | 38051 ft | 417 kts | 282° |
| 2026-04-19 08:58 | 50.25403 | 11.93416 | 38049 ft | 416 kts | 282° |
| 2026-04-19 08:59 | 50.26763 | 11.84631 | 38048 ft | 416 kts | 282° |
| 2026-04-19 08:59 | 50.28123 | 11.75856 | 38049 ft | 415 kts | 282° |
| 2026-04-19 09:00 | 50.29474 | 11.67080 | 38046 ft | 415 kts | 282° |
| 2026-04-19 09:00 | 50.30811 | 11.58310 | 38058 ft | 414 kts | 282° |
| 2026-04-19 09:01 | 50.32124 | 11.49522 | 38043 ft | 415 kts | 282° |
| 2026-04-19 09:01 | 50.33425 | 11.40717 | 38060 ft | 416 kts | 282° |
| 2026-04-19 09:02 | 50.34725 | 11.31905 | 38054 ft | 415 kts | 282° |
| 2026-04-19 09:02 | 50.36015 | 11.23098 | 38068 ft | 415 kts | 282° |
| 2026-04-19 09:03 | 50.37307 | 11.14280 | 38069 ft | 415 kts | 282° |
| 2026-04-19 09:03 | 50.38598 | 11.05440 | 38091 ft | 417 kts | 282° |
| 2026-04-19 09:04 | 50.39885 | 10.96567 | 37919 ft | 419 kts | 281° |
| 2026-04-19 09:04 | 50.40534 | 10.92061 | 36900 ft | 430 kts | 281° |
| 2026-04-19 09:04 | 50.41193 | 10.87448 | 36061 ft | 436 kts | 280° |
| 2026-04-19 09:05 | 50.41856 | 10.82806 | 35552 ft | 435 kts | 280° |
| 2026-04-19 09:05 | 50.42516 | 10.78184 | 35092 ft | 433 kts | 280° |
| 2026-04-19 09:05 | 50.43169 | 10.73599 | 34660 ft | 429 kts | 279° |
| 2026-04-19 09:05 | 50.43815 | 10.69056 | 34220 ft | 424 kts | 279° |
| 2026-04-19 09:06 | 50.44459 | 10.64559 | 33662 ft | 421 kts | 279° |
| 2026-04-19 09:06 | 50.45102 | 10.60098 | 33091 ft | 417 kts | 279° |
| 2026-04-19 09:06 | 50.45742 | 10.55676 | 32524 ft | 414 kts | 279° |
| 2026-04-19 09:06 | 50.46375 | 10.51290 | 31965 ft | 410 kts | 279° |
| 2026-04-19 09:07 | 50.47002 | 10.46939 | 31420 ft | 407 kts | 279° |
| 2026-04-19 09:07 | 50.47615 | 10.42641 | 30763 ft | 400 kts | 278° |
| 2026-04-19 09:07 | 50.48212 | 10.38407 | 29753 ft | 395 kts | 278° |
| 2026-04-19 09:07 | 50.48800 | 10.34187 | 29098 ft | 393 kts | 278° |
| 2026-04-19 09:08 | 50.49377 | 10.30038 | 28712 ft | 385 kts | 278° |
| 2026-04-19 09:08 | 50.49942 | 10.25968 | 28287 ft | 379 kts | 278° |
| 2026-04-19 09:08 | 50.50499 | 10.21941 | 27889 ft | 375 kts | 277° |
| 2026-04-19 09:08 | 50.51050 | 10.17960 | 27465 ft | 371 kts | 277° |
| 2026-04-19 09:09 | 50.51595 | 10.14027 | 27049 ft | 367 kts | 277° |
| 2026-04-19 09:09 | 50.52131 | 10.10122 | 26635 ft | 364 kts | 277° |
| 2026-04-19 09:09 | 50.52660 | 10.06255 | 26235 ft | 360 kts | 277° |
| 2026-04-19 09:09 | 50.53196 | 10.02424 | 25816 ft | 359 kts | 280° |
| 2026-04-19 09:10 | 50.54121 | 9.98758 | 25382 ft | 364 kts | 294° |
| 2026-04-19 09:10 | 50.55626 | 9.95533 | 24952 ft | 370 kts | 309° |
| 2026-04-19 09:10 | 50.57631 | 9.92986 | 24607 ft | 374 kts | 324° |
| 2026-04-19 09:10 | 50.59953 | 9.91122 | 24242 ft | 375 kts | 330° |
| 2026-04-19 09:11 | 50.62295 | 9.89339 | 23877 ft | 373 kts | 330° |
| 2026-04-19 09:11 | 50.64629 | 9.87559 | 23477 ft | 371 kts | 330° |
| 2026-04-19 09:11 | 50.66944 | 9.85789 | 23100 ft | 369 kts | 329° |
| 2026-04-19 09:11 | 50.69246 | 9.84024 | 22773 ft | 367 kts | 329° |
| 2026-04-19 09:12 | 50.71531 | 9.82270 | 22379 ft | 364 kts | 329° |
| 2026-04-19 09:12 | 50.73796 | 9.80529 | 22017 ft | 360 kts | 329° |
| 2026-04-19 09:12 | 50.76042 | 9.78799 | 21675 ft | 358 kts | 329° |
| 2026-04-19 09:12 | 50.78269 | 9.77078 | 21321 ft | 355 kts | 329° |
| 2026-04-19 09:13 | 50.80476 | 9.75369 | 20972 ft | 352 kts | 329° |
| 2026-04-19 09:13 | 50.82670 | 9.73672 | 20626 ft | 350 kts | 329° |
| 2026-04-19 09:13 | 50.84798 | 9.71876 | 20277 ft | 343 kts | 321° |
| 2026-04-19 09:13 | 50.86602 | 9.69505 | 19952 ft | 333 kts | 308° |
| 2026-04-19 09:14 | 50.88001 | 9.66642 | 19629 ft | 325 kts | 296° |
| 2026-04-19 09:14 | 50.88979 | 9.63478 | 19320 ft | 318 kts | 287° |
| 2026-04-19 09:14 | 50.89824 | 9.60254 | 19020 ft | 316 kts | 288° |
| 2026-04-19 09:14 | 50.90669 | 9.57055 | 18705 ft | 314 kts | 288° |
| 2026-04-19 09:15 | 50.91508 | 9.53882 | 18391 ft | 311 kts | 288° |
| 2026-04-19 09:15 | 50.92338 | 9.50732 | 18059 ft | 309 kts | 288° |
| 2026-04-19 09:15 | 50.93980 | 9.44478 | 17456 ft | 305 kts | 289° |
| 2026-04-19 09:16 | 50.94787 | 9.41391 | 17167 ft | 301 kts | 289° |
| 2026-04-19 09:16 | 50.95585 | 9.38338 | 16884 ft | 298 kts | 289° |
| 2026-04-19 09:16 | 50.96378 | 9.35304 | 16597 ft | 297 kts | 289° |
| 2026-04-19 09:16 | 50.97169 | 9.32273 | 16332 ft | 297 kts | 289° |
| 2026-04-19 09:17 | 50.97958 | 9.29250 | 16079 ft | 296 kts | 289° |
| 2026-04-19 09:17 | 50.98742 | 9.26237 | 15819 ft | 295 kts | 290° |
| 2026-04-19 09:17 | 50.99522 | 9.23239 | 15564 ft | 293 kts | 290° |
| 2026-04-19 09:17 | 51.00297 | 9.20254 | 15306 ft | 292 kts | 290° |
| 2026-04-19 09:18 | 51.01068 | 9.17281 | 15055 ft | 291 kts | 290° |
| 2026-04-19 09:18 | 51.01836 | 9.14320 | 14810 ft | 289 kts | 290° |
| 2026-04-19 09:18 | 51.02598 | 9.11375 | 14559 ft | 288 kts | 290° |
| 2026-04-19 09:18 | 51.03357 | 9.08439 | 14318 ft | 287 kts | 290° |
| 2026-04-19 09:19 | 51.04111 | 9.05515 | 14075 ft | 285 kts | 290° |
| 2026-04-19 09:19 | 51.04857 | 9.02605 | 13819 ft | 284 kts | 290° |
| 2026-04-19 09:19 | 51.05599 | 8.99704 | 13546 ft | 283 kts | 290° |
| 2026-04-19 09:19 | 51.06340 | 8.96807 | 13273 ft | 282 kts | 290° |
| 2026-04-19 09:20 | 51.07078 | 8.93923 | 13002 ft | 282 kts | 290° |
| 2026-04-19 09:20 | 51.07815 | 8.91043 | 12733 ft | 280 kts | 290° |
| 2026-04-19 09:20 | 51.08547 | 8.88175 | 12364 ft | 279 kts | 290° |
| 2026-04-19 09:20 | 51.09276 | 8.85320 | 12010 ft | 278 kts | 291° |
| 2026-04-19 09:21 | 51.10003 | 8.82480 | 11663 ft | 276 kts | 291° |
| 2026-04-19 09:21 | 51.10726 | 8.79657 | 11312 ft | 275 kts | 291° |
| 2026-04-19 09:21 | 51.11552 | 8.76926 | 11137 ft | 275 kts | 298° |
| 2026-04-19 09:21 | 51.12504 | 8.74279 | 11151 ft | 276 kts | 298° |
| 2026-04-19 09:22 | 51.13451 | 8.71614 | 11151 ft | 277 kts | 298° |
| 2026-04-19 09:22 | 51.14396 | 8.68946 | 11150 ft | 277 kts | 298° |
| 2026-04-19 09:22 | 51.15340 | 8.66278 | 11152 ft | 276 kts | 298° |
| 2026-04-19 09:22 | 51.16278 | 8.63630 | 11151 ft | 273 kts | 298° |
| 2026-04-19 09:23 | 51.17208 | 8.60995 | 11154 ft | 273 kts | 298° |
| 2026-04-19 09:23 | 51.18138 | 8.58358 | 11152 ft | 273 kts | 298° |
| 2026-04-19 09:23 | 51.19064 | 8.55733 | 11162 ft | 271 kts | 298° |
| 2026-04-19 09:23 | 51.20031 | 8.53148 | 11160 ft | 272 kts | 305° |
| 2026-04-19 09:24 | 51.21319 | 8.50940 | 11163 ft | 274 kts | 315° |
| 2026-04-19 09:24 | 51.22727 | 8.48888 | 11164 ft | 275 kts | 315° |
| 2026-04-19 09:24 | 51.24137 | 8.46823 | 11163 ft | 274 kts | 315° |
| 2026-04-19 09:24 | 51.25534 | 8.44770 | 11161 ft | 274 kts | 315° |
| 2026-04-19 09:25 | 51.26941 | 8.42691 | 11166 ft | 277 kts | 315° |
| 2026-04-19 09:25 | 51.28356 | 8.40603 | 11176 ft | 277 kts | 316° |
| 2026-04-19 09:25 | 51.29761 | 8.38528 | 11171 ft | 274 kts | 316° |
| 2026-04-19 09:25 | 51.31166 | 8.36454 | 11108 ft | 274 kts | 316° |
| 2026-04-19 09:26 | 51.32558 | 8.34401 | 10786 ft | 272 kts | 316° |
| 2026-04-19 09:26 | 51.33947 | 8.32350 | 10418 ft | 272 kts | 316° |
| 2026-04-19 09:26 | 51.35335 | 8.30299 | 10045 ft | 272 kts | 317° |
| 2026-04-19 09:26 | 51.36722 | 8.28245 | 9638 ft | 271 kts | 317° |
| 2026-04-19 09:27 | 51.38102 | 8.26200 | 9232 ft | 270 kts | 317° |
| 2026-04-19 09:27 | 51.39482 | 8.24151 | 8836 ft | 270 kts | 317° |
| 2026-04-19 09:27 | 51.40859 | 8.22105 | 8442 ft | 270 kts | 317° |
| 2026-04-19 09:27 | 51.42214 | 8.20093 | 8043 ft | 269 kts | 317° |
| 2026-04-19 09:28 | 51.43581 | 8.18059 | 7664 ft | 268 kts | 318° |
| 2026-04-19 09:28 | 51.44947 | 8.16026 | 7271 ft | 268 kts | 318° |
| 2026-04-19 09:28 | 51.46314 | 8.13988 | 6893 ft | 268 kts | 318° |
| 2026-04-19 09:28 | 51.47673 | 8.11957 | 6522 ft | 266 kts | 318° |
| 2026-04-19 09:29 | 51.49018 | 8.09944 | 6193 ft | 262 kts | 318° |
| 2026-04-19 09:29 | 51.50336 | 8.07974 | 5931 ft | 256 kts | 318° |
| 2026-04-19 09:29 | 51.51626 | 8.06046 | 5673 ft | 251 kts | 318° |
| 2026-04-19 09:29 | 51.52896 | 8.04145 | 5414 ft | 247 kts | 318° |
| 2026-04-19 09:30 | 51.54144 | 8.02273 | 5162 ft | 244 kts | 318° |
| 2026-04-19 09:30 | 51.55375 | 8.00423 | 4903 ft | 241 kts | 318° |
| 2026-04-19 09:30 | 51.56588 | 7.98599 | 4638 ft | 237 kts | 318° |
| 2026-04-19 09:30 | 51.57784 | 7.96802 | 4404 ft | 233 kts | 318° |
| 2026-04-19 09:31 | 51.58945 | 7.95062 | 4278 ft | 224 kts | 318° |
| 2026-04-19 09:31 | 51.60059 | 7.93394 | 4141 ft | 214 kts | 318° |
| 2026-04-19 09:31 | 51.61008 | 7.91634 | 4017 ft | 206 kts | 300° |
| 2026-04-19 09:31 | 51.61337 | 7.89431 | 3885 ft | 204 kts | 271° |
| 2026-04-19 09:32 | 51.60945 | 7.87262 | 3763 ft | 202 kts | 245° |
| 2026-04-19 09:32 | 51.60274 | 7.85350 | 3628 ft | 189 kts | 246° |
| 2026-04-19 09:32 | 51.59646 | 7.83555 | 3453 ft | 181 kts | 245° |
| 2026-04-19 09:32 | 51.59038 | 7.81809 | 3233 ft | 177 kts | 246° |
| 2026-04-19 09:33 | 51.58440 | 7.80094 | 3003 ft | 175 kts | 245° |
| 2026-04-19 09:33 | 51.57848 | 7.78395 | 2767 ft | 174 kts | 245° |
| 2026-04-19 09:33 | 51.57261 | 7.76716 | 2526 ft | 171 kts | 245° |
| 2026-04-19 09:33 | 51.56685 | 7.75068 | 2297 ft | 165 kts | 245° |
| 2026-04-19 09:34 | 51.56145 | 7.73531 | 2071 ft | 150 kts | 245° |
| 2026-04-19 09:34 | 51.55650 | 7.72117 | 1854 ft | 140 kts | 247° |
| 2026-04-19 09:34 | 51.55191 | 7.70805 | 1676 ft | 135 kts | 244° |
| 2026-04-19 09:34 | 51.54735 | 7.69500 | 1472 ft | 133 kts | 248° |
| 2026-04-19 09:35 | 51.54275 | 7.68186 | 1285 ft | 136 kts | 245° |
| 2026-04-19 09:35 | 51.53813 | 7.66867 | 1095 ft | 135 kts | 243° |
| 2026-04-19 09:35 | 51.53352 | 7.65553 | 908 ft | 135 kts | 241° |
| 2026-04-19 09:35 | 51.52892 | 7.64245 | 717 ft | 135 kts | 243° |
| 2026-04-19 09:36 | 51.52432 | 7.62942 | 517 ft | 134 kts | 243° |
| 2026-04-19 09:36 | 51.51992 | 7.61677 | 414 ft | 118 kts | 240° |
| 2026-04-19 09:36 | 51.51704 | 7.60859 | 414 ft | 56 kts | 240° |
| 2026-04-19 09:36 | 51.51548 | 7.60411 | 408 ft | 30 kts | 239° |
| 2026-04-19 09:37 | 51.51461 | 7.60246 | 414 ft | 11 kts | 191° |
| 2026-04-19 09:37 | 51.51386 | 7.60291 | 417 ft | 12 kts | 144° |
| 2026-04-19 09:37 | 51.51365 | 7.60405 | 417 ft | 13 kts | 66° |
| 2026-04-19 09:37 | 51.51412 | 7.60541 | 418 ft | 15 kts | 61° |
| 2026-04-19 09:38 | 51.51470 | 7.60705 | 415 ft | 20 kts | 60° |
| 2026-04-19 09:38 | 51.51538 | 7.60896 | 424 ft | 19 kts | 59° |
| 2026-04-19 09:38 | 51.51576 | 7.61016 | 426 ft | 4 kts | 65° |
| 2026-04-19 09:38 | 51.51587 | 7.61056 | 427 ft | 0 kts | 68° |
| 2026-04-19 09:39 | 51.51576 | 7.61075 | 434 ft | 6 kts | 156° |
| 2026-04-19 09:39 | 51.51504 | 7.61080 | 434 ft | 15 kts | 155° |
| 2026-04-19 09:39 | 51.51470 | 7.61117 | 432 ft | 1 kts | 144° |
| 2026-04-19 09:39 | 51.51465 | 7.61122 | 434 ft | 0 kts | 144° |